createdAt,value
2022-11-22T00:00:25.295Z,20.27
2022-11-22T00:02:27.551Z,21.30
2022-11-22T00:04:29.800Z,19.43
2022-11-22T00:06:31.894Z,20.00
2022-11-22T00:08:33.985Z,18.73
2022-11-22T00:10:36.182Z,21.23
2022-11-22T00:12:39.000Z,22.60
2022-11-22T00:14:41.238Z,19.57
2022-11-22T00:16:43.474Z,22.30
2022-11-22T00:18:45.651Z,20.53
2022-11-22T00:20:47.817Z,20.00
2022-11-22T00:22:49.988Z,21.77
2022-11-22T00:24:52.679Z,19.73
2022-11-22T00:26:54.805Z,20.33
2022-11-22T00:28:56.964Z,19.90
2022-11-22T00:30:59.213Z,19.33
2022-11-22T00:33:01.371Z,19.40
2022-11-22T00:35:03.665Z,20.00
2022-11-22T00:37:06.001Z,19.23
2022-11-22T00:39:09.365Z,20.07
2022-11-22T00:41:11.518Z,19.40
2022-11-22T00:43:13.613Z,19.30
2022-11-22T00:45:15.853Z,18.40
2022-11-22T00:47:18.002Z,23.83
2022-11-22T00:49:20.178Z,19.77
2022-11-22T00:51:22.443Z,18.97
2022-11-22T00:53:24.740Z,19.77
2022-11-22T00:55:26.864Z,16.40
2022-11-22T00:57:29.047Z,19.47
2022-11-22T00:59:31.440Z,18.23
2022-11-22T01:01:33.802Z,18.77
2022-11-22T01:03:35.983Z,18.47
2022-11-22T01:05:38.299Z,20.23
2022-11-22T01:07:40.429Z,18.10
2022-11-22T01:09:42.580Z,23.50
2022-11-22T01:11:44.802Z,20.70
2022-11-22T01:13:46.949Z,20.70
2022-11-22T01:15:49.049Z,20.87
2022-11-22T01:17:51.663Z,19.60
2022-11-22T01:19:53.792Z,20.10
2022-11-22T01:21:55.918Z,19.23
2022-11-22T01:23:58.050Z,20.20
2022-11-22T01:26:00.314Z,19.07
2022-11-22T01:28:02.449Z,19.03
2022-11-22T01:30:05.172Z,18.70
2022-11-22T01:32:07.359Z,22.17
2022-11-22T01:34:09.566Z,19.40
2022-11-22T01:36:11.710Z,20.37
2022-11-22T01:38:13.888Z,17.97
2022-11-22T01:40:16.043Z,20.80
2022-11-22T01:42:18.166Z,19.67
2022-11-22T01:44:29.734Z,19.23
2022-11-22T01:46:37.807Z,18.43
2022-11-22T01:48:46.430Z,18.67
2022-11-22T01:50:52.339Z,18.10
2022-11-22T01:52:55.692Z,18.87
2022-11-22T01:55:01.026Z,18.97
2022-11-22T01:57:10.914Z,18.67
2022-11-22T01:59:17.598Z,19.47
2022-11-22T02:01:19.869Z,19.10
2022-11-22T02:03:22.510Z,17.70
2022-11-22T02:05:27.732Z,17.90
2022-11-22T02:07:35.803Z,17.67
2022-11-22T02:09:39.522Z,18.10
2022-11-22T02:11:47.530Z,19.10
2022-11-22T02:13:51.540Z,18.27
2022-11-22T02:15:53.918Z,19.33
2022-11-22T02:17:59.020Z,20.30
2022-11-22T02:20:01.151Z,17.77
2022-11-22T02:22:23.477Z,18.97
2022-11-22T02:24:32.053Z,17.10
2022-11-22T02:26:34.234Z,18.60
2022-11-22T02:28:38.135Z,18.80
2022-11-22T02:30:41.292Z,18.07
2022-11-22T02:32:43.609Z,18.93
2022-11-22T02:34:49.287Z,19.13
2022-11-22T02:36:53.806Z,20.77
2022-11-22T02:38:56.214Z,19.17
2022-11-22T02:41:09.382Z,19.10
2022-11-22T02:43:14.775Z,20.90
2022-11-22T02:45:16.986Z,18.00
2022-11-22T02:47:19.222Z,17.80
2022-11-22T02:49:23.906Z,18.30
2022-11-22T02:51:26.571Z,19.57
2022-11-22T02:53:30.777Z,21.90
2022-11-22T02:55:33.125Z,18.40
2022-11-22T02:57:35.306Z,19.53
2022-11-22T02:59:37.411Z,20.00
2022-11-22T03:01:40.028Z,20.43
2022-11-22T03:03:42.142Z,19.83
2022-11-22T03:05:44.809Z,19.33
2022-11-22T03:07:46.990Z,19.97
2022-11-22T03:09:49.173Z,19.20
2022-11-22T03:11:51.550Z,18.90
2022-11-22T03:13:53.723Z,20.87
2022-11-22T03:15:55.899Z,19.73
2022-11-22T03:18:03.189Z,20.03
2022-11-22T03:20:06.104Z,20.50
2022-11-22T03:22:08.209Z,18.50
2022-11-22T03:24:11.093Z,20.17
2022-11-22T03:26:13.250Z,19.53
2022-11-22T03:28:15.392Z,19.13
2022-11-22T03:30:17.636Z,17.33
2022-11-22T03:32:19.752Z,20.90
2022-11-22T03:34:21.937Z,19.90
2022-11-22T03:36:24.178Z,22.63
2022-11-22T03:38:26.322Z,21.23
2022-11-22T03:40:28.614Z,20.87
2022-11-22T03:42:31.014Z,21.67
2022-11-22T03:44:33.148Z,20.53
2022-11-22T03:46:35.315Z,20.93
2022-11-22T03:48:37.444Z,20.07
2022-11-22T03:50:39.621Z,21.17
2022-11-22T03:52:41.778Z,19.27
2022-11-22T03:54:43.888Z,20.97
2022-11-22T03:56:46.073Z,20.00
2022-11-22T03:58:48.457Z,18.87
2022-11-22T04:00:50.596Z,22.87
2022-11-22T04:02:52.668Z,23.00
2022-11-22T04:04:54.891Z,21.20
2022-11-22T04:06:57.030Z,20.77
2022-11-22T04:08:59.256Z,20.73
2022-11-22T04:11:01.427Z,20.70
2022-11-22T04:13:03.608Z,21.83
2022-11-22T04:15:09.066Z,20.30
2022-11-22T04:17:14.671Z,21.13
2022-11-22T04:19:16.827Z,22.60
2022-11-22T04:21:34.066Z,23.77
2022-11-22T04:23:36.229Z,21.67
2022-11-22T04:25:43.845Z,21.40
2022-11-22T04:27:46.036Z,19.57
2022-11-22T04:29:48.129Z,20.10
2022-11-22T04:32:09.575Z,19.77
2022-11-22T04:34:11.795Z,21.60
2022-11-22T04:36:13.905Z,22.40
2022-11-22T04:38:16.886Z,22.17
2022-11-22T04:40:19.003Z,18.33
2022-11-22T04:42:39.624Z,19.17
2022-11-22T04:44:42.994Z,19.57
2022-11-22T04:46:45.170Z,18.90
2022-11-22T04:48:47.375Z,19.67
2022-11-22T04:51:08.225Z,20.67
2022-11-22T04:53:10.423Z,20.73
2022-11-22T04:55:12.571Z,19.90
2022-11-22T04:57:14.641Z,20.63
2022-11-22T04:59:16.769Z,20.97
2022-11-22T05:01:19.081Z,20.70
2022-11-22T05:03:21.332Z,18.93
2022-11-22T05:05:24.404Z,22.00
2022-11-22T05:07:28.233Z,19.60
2022-11-22T05:09:30.676Z,21.07
2022-11-22T05:11:33.142Z,22.07
2022-11-22T05:13:40.166Z,21.33
2022-11-22T05:15:42.283Z,19.60
2022-11-22T05:17:44.606Z,19.17
2022-11-22T05:19:49.253Z,21.03
2022-11-22T05:21:51.645Z,22.77
2022-11-22T05:23:56.537Z,19.73
2022-11-22T05:25:59.455Z,19.60
2022-11-22T05:28:01.622Z,19.77
2022-11-22T05:30:05.362Z,19.30
2022-11-22T05:32:07.592Z,19.77
2022-11-22T05:34:09.758Z,19.00
2022-11-22T05:36:12.506Z,19.63
2022-11-22T05:38:14.797Z,19.03
2022-11-22T05:40:17.032Z,21.10
2022-11-22T05:42:19.233Z,19.57
2022-11-22T05:44:22.755Z,17.73
2022-11-22T05:46:27.066Z,20.53
2022-11-22T05:48:29.211Z,18.87
2022-11-22T05:50:31.438Z,18.90
2022-11-22T05:52:34.057Z,18.67
2022-11-22T05:54:36.222Z,19.23
2022-11-22T05:56:38.450Z,19.20
2022-11-22T05:58:41.534Z,18.37
2022-11-22T06:00:43.631Z,21.90
2022-11-22T06:02:45.751Z,18.87
2022-11-22T06:04:47.871Z,17.90
2022-11-22T06:06:50.023Z,18.97
2022-11-22T06:08:52.184Z,19.57
2022-11-22T06:10:54.320Z,17.33
2022-11-22T06:12:56.449Z,18.30
2022-11-22T06:15:01.127Z,20.53
2022-11-22T06:17:03.772Z,20.20
2022-11-22T06:19:05.932Z,19.10
2022-11-22T06:21:11.450Z,18.70
2022-11-22T06:23:13.637Z,18.30
2022-11-22T06:25:15.915Z,18.50
2022-11-22T06:27:18.131Z,22.27
2022-11-22T06:29:20.344Z,18.13
2022-11-22T06:31:27.206Z,17.87
2022-11-22T06:33:29.428Z,20.93
2022-11-22T06:35:31.571Z,16.60
2022-11-22T06:37:33.892Z,19.13
2022-11-22T06:39:36.232Z,19.60
2022-11-22T06:41:38.518Z,16.27
2022-11-22T06:43:47.992Z,16.57
2022-11-22T06:45:56.002Z,17.03
2022-11-22T06:47:59.004Z,20.20
2022-11-22T06:50:01.110Z,19.20
2022-11-22T06:52:03.264Z,19.40
2022-11-22T06:54:05.475Z,21.40
2022-11-22T06:56:11.913Z,19.07
2022-11-22T06:58:14.105Z,19.73
2022-11-22T07:00:16.812Z,19.17
2022-11-22T07:02:18.955Z,18.80
2022-11-22T07:04:21.060Z,17.67
2022-11-22T07:06:23.903Z,18.20
2022-11-22T07:08:25.992Z,21.30
2022-11-22T07:10:28.182Z,19.20
2022-11-22T07:12:30.311Z,20.87
2022-11-22T07:14:32.470Z,16.17
2022-11-22T07:16:35.676Z,17.13
2022-11-22T07:18:37.892Z,17.70
2022-11-22T07:20:40.015Z,19.47
2022-11-22T07:22:42.179Z,17.70
2022-11-22T07:24:44.284Z,16.40
2022-11-22T07:26:46.500Z,18.60
2022-11-22T07:28:49.000Z,18.97
2022-11-22T07:30:51.490Z,20.23
2022-11-22T07:32:53.607Z,19.20
2022-11-22T07:34:55.724Z,19.87
2022-11-22T07:37:01.396Z,19.00
2022-11-22T07:39:05.807Z,18.10
2022-11-22T07:41:08.991Z,18.30
2022-11-22T07:43:11.183Z,18.20
2022-11-22T07:45:13.343Z,19.47
2022-11-22T07:47:19.906Z,18.83
2022-11-22T07:49:24.948Z,18.97
2022-11-22T07:51:27.623Z,18.13
2022-11-22T07:53:30.063Z,20.40
2022-11-22T07:55:32.197Z,17.10
2022-11-22T07:57:34.952Z,17.93
2022-11-22T07:59:37.035Z,19.97
2022-11-22T08:01:39.218Z,17.87
2022-11-22T08:03:42.096Z,18.47
2022-11-22T08:05:44.257Z,18.87
2022-11-22T08:07:50.562Z,18.47
2022-11-22T08:09:52.775Z,18.80
2022-11-22T08:11:54.899Z,17.07
2022-11-22T08:13:57.235Z,18.07
2022-11-22T08:16:12.040Z,19.20
2022-11-22T08:18:14.517Z,18.03
2022-11-22T08:20:16.720Z,17.83
2022-11-22T08:22:19.103Z,18.23
2022-11-22T08:24:21.838Z,18.03
2022-11-22T08:26:23.935Z,16.47
2022-11-22T08:28:26.633Z,14.73
2022-11-22T08:30:28.762Z,16.07
2022-11-22T08:32:30.867Z,17.57
2022-11-22T08:34:33.995Z,15.97
2022-11-22T08:36:36.531Z,17.03
2022-11-22T08:38:38.851Z,16.13
2022-11-22T08:40:42.225Z,16.60
2022-11-22T08:42:44.390Z,16.60
2022-11-22T08:44:46.509Z,16.03
2022-11-22T08:46:48.640Z,16.30
2022-11-22T08:48:52.599Z,16.27
2022-11-22T08:51:00.106Z,16.87
2022-11-22T08:53:02.250Z,14.70
2022-11-22T08:55:04.604Z,14.43
2022-11-22T08:57:06.940Z,16.20
2022-11-22T08:59:09.123Z,15.20
2022-11-22T09:01:13.854Z,13.50
2022-11-22T09:03:16.161Z,14.90
2022-11-22T09:05:18.380Z,14.20
2022-11-22T09:09:42.698Z,15.30
2022-11-22T09:11:44.812Z,15.10
2022-11-22T09:13:47.300Z,15.93
2022-11-22T09:15:49.430Z,16.37
2022-11-22T09:17:51.583Z,15.40
2022-11-22T09:19:53.725Z,14.40
2022-11-22T09:21:55.914Z,15.90
2022-11-22T09:23:58.083Z,17.00
2022-11-22T09:26:04.873Z,15.73
2022-11-22T09:28:07.055Z,15.67
2022-11-22T09:30:09.697Z,15.63
2022-11-22T09:32:11.865Z,15.47
2022-11-22T09:34:14.055Z,16.73
2022-11-22T09:36:20.982Z,14.73
2022-11-22T09:38:23.090Z,14.10
2022-11-22T09:40:25.592Z,15.10
2022-11-22T09:42:33.601Z,14.07
2022-11-22T09:44:41.787Z,14.93
2022-11-22T09:46:54.350Z,15.60
2022-11-22T09:49:21.565Z,15.27
2022-11-22T09:51:27.796Z,15.73
2022-11-22T09:54:05.234Z,13.60
2022-11-22T09:56:16.482Z,13.53
2022-11-22T09:58:27.970Z,15.10
2022-11-22T10:00:30.490Z,14.50
2022-11-22T10:02:58.974Z,15.20
2022-11-22T10:05:01.612Z,14.67
2022-11-22T10:07:13.732Z,14.53
2022-11-22T10:09:31.218Z,14.63
2022-11-22T10:11:36.798Z,13.87
2022-11-22T10:13:48.960Z,15.20
2022-11-22T10:15:58.288Z,14.77
2022-11-22T10:18:11.710Z,14.33
2022-11-22T10:20:16.435Z,14.93
2022-11-22T10:22:19.263Z,14.77
2022-11-22T10:24:21.357Z,12.90
2022-11-22T10:26:36.947Z,14.87
2022-11-22T10:28:55.303Z,14.10
2022-11-22T10:31:17.466Z,15.17
2022-11-22T10:33:33.320Z,15.37
2022-11-22T10:35:50.805Z,14.37
2022-11-22T10:38:22.668Z,14.77
2022-11-22T10:40:30.790Z,16.30
2022-11-22T10:42:57.865Z,15.13
2022-11-22T10:45:26.191Z,14.90
2022-11-22T10:47:45.767Z,16.70
2022-11-22T10:50:20.879Z,14.13
2022-11-22T10:52:44.796Z,17.10
2022-11-22T10:55:09.968Z,13.63
2022-11-22T10:57:25.852Z,15.63
2022-11-22T10:59:52.444Z,16.30
2022-11-22T11:02:35.734Z,14.40
2022-11-22T11:04:39.328Z,13.83
2022-11-22T11:10:09.181Z,15.57
2022-11-22T11:11:40.271Z,16.87
2022-11-22T11:13:45.506Z,16.50
2022-11-22T11:15:55.767Z,14.27
2022-11-22T11:18:01.293Z,14.87
2022-11-22T11:20:11.015Z,15.13
2022-11-22T11:22:42.815Z,16.60
2022-11-22T11:24:44.848Z,14.67
2022-11-22T11:26:56.477Z,15.50
2022-11-22T11:29:16.929Z,16.10
2022-11-22T11:31:19.213Z,15.30
2022-11-22T11:33:26.099Z,15.33
2022-11-22T11:35:29.163Z,17.07
2022-11-22T11:37:36.790Z,15.37
2022-11-22T11:39:44.511Z,16.10
2022-11-22T11:41:47.535Z,16.13
2022-11-22T11:43:51.257Z,14.30
2022-11-22T11:45:53.259Z,13.90
2022-11-22T11:47:55.521Z,14.97
2022-11-22T11:49:57.657Z,15.63
2022-11-22T11:52:00.168Z,18.10
2022-11-22T11:54:04.786Z,17.23
2022-11-22T11:56:49.097Z,15.70
2022-11-22T11:58:53.233Z,15.20
2022-11-22T12:00:55.406Z,16.37
2022-11-22T12:03:04.855Z,14.97
2022-11-22T12:05:07.780Z,16.40
2022-11-22T12:07:17.880Z,15.10
2022-11-22T12:09:31.542Z,15.43
2022-11-22T12:11:40.744Z,15.23
2022-11-22T12:14:18.604Z,16.23
2022-11-22T12:16:24.012Z,14.63
2022-11-22T12:18:47.303Z,14.83
2022-11-22T12:20:58.212Z,14.50
2022-11-22T12:23:09.515Z,15.40
2022-11-22T12:25:32.549Z,15.20
2022-11-22T12:27:35.169Z,14.40
2022-11-22T12:29:38.895Z,14.70
2022-11-22T12:31:59.302Z,14.40
2022-11-22T12:34:07.200Z,13.70
2022-11-22T12:36:21.932Z,14.50
2022-11-22T12:38:30.340Z,14.27
2022-11-22T12:40:43.841Z,12.33
2022-11-22T12:42:52.420Z,12.50
2022-11-22T12:45:02.446Z,12.07
2022-11-22T12:47:14.156Z,12.50
2022-11-22T12:49:34.556Z,11.53
2022-11-22T12:52:04.414Z,11.53
2022-11-22T12:54:12.728Z,11.33
2022-11-22T12:56:34.254Z,10.97
2022-11-22T12:58:41.642Z,11.57
2022-11-22T13:01:14.192Z,12.53
2022-11-22T13:03:21.466Z,12.87
2022-11-22T13:05:27.163Z,12.60
2022-11-22T13:07:59.141Z,11.87
2022-11-22T13:10:20.256Z,11.47
2022-11-22T13:12:31.441Z,11.37
2022-11-22T13:14:40.008Z,12.97
2022-11-22T13:16:42.077Z,12.70
2022-11-22T13:18:52.510Z,13.00
2022-11-22T13:21:03.102Z,11.33
2022-11-22T13:23:23.627Z,13.07
2022-11-22T13:25:40.856Z,11.80
2022-11-22T13:27:45.304Z,17.77
2022-11-22T13:29:47.977Z,15.80
2022-11-22T13:32:11.941Z,12.87
2022-11-22T13:34:25.705Z,11.37
2022-11-22T13:36:30.689Z,12.50
2022-11-22T13:38:32.775Z,10.97
2022-11-22T13:40:39.137Z,11.50
2022-11-22T13:42:41.171Z,11.57
2022-11-22T13:45:22.649Z,11.73
2022-11-22T13:47:24.590Z,12.27
2022-11-22T13:49:37.504Z,13.37
2022-11-22T13:51:54.086Z,14.70
2022-11-22T13:54:34.453Z,14.30
2022-11-22T13:56:36.648Z,13.30
2022-11-22T13:59:05.923Z,15.40
2022-11-22T14:01:29.877Z,14.27
2022-11-22T14:03:41.157Z,14.63
2022-11-22T14:05:47.914Z,15.60
2022-11-22T14:07:51.584Z,14.70
2022-11-22T14:09:55.949Z,15.63
2022-11-22T14:12:34.207Z,13.90
2022-11-22T14:15:13.938Z,14.63
2022-11-22T14:17:50.153Z,13.50
2022-11-22T14:19:52.330Z,13.87
2022-11-22T14:22:00.014Z,13.37
2022-11-22T14:24:28.385Z,13.00
2022-11-22T14:26:33.262Z,13.33
2022-11-22T14:28:38.120Z,13.73
2022-11-22T14:30:51.774Z,13.20
2022-11-22T14:33:05.179Z,13.90
2022-11-22T14:35:18.183Z,13.13
2022-11-22T14:37:20.137Z,13.73
2022-11-22T14:39:44.231Z,13.70
2022-11-22T14:41:46.429Z,12.40
2022-11-22T14:43:49.994Z,14.13
2022-11-22T14:46:37.351Z,13.47
2022-11-22T14:48:43.358Z,12.97
2022-11-22T14:51:08.232Z,13.30
2022-11-22T14:53:35.238Z,13.20
2022-11-22T14:55:38.096Z,12.80
2022-11-22T14:57:40.252Z,13.83
2022-11-22T15:00:04.215Z,13.70
2022-11-22T15:02:38.610Z,11.40
2022-11-22T15:09:20.089Z,11.80
2022-11-22T15:09:20.991Z,12.87
2022-11-22T15:10:31.403Z,12.27
2022-11-22T15:12:44.135Z,12.13
2022-11-22T15:14:58.375Z,11.80
2022-11-22T15:58:31.106Z,18.23
2022-11-22T16:00:33.269Z,21.87
2022-11-22T16:02:40.017Z,20.10
2022-11-22T16:06:08.767Z,20.17
2022-11-22T16:07:43.256Z,20.40
2022-11-22T16:09:50.080Z,20.27
2022-11-22T16:12:01.361Z,20.70
2022-11-22T16:14:03.875Z,21.07
2022-11-22T16:16:11.924Z,21.33
2022-11-22T16:18:16.140Z,21.67
2022-11-22T16:20:27.095Z,21.90
2022-11-22T16:22:31.697Z,21.77
2022-11-22T16:24:33.909Z,21.47
2022-11-22T16:26:36.036Z,22.73
2022-11-22T16:28:38.300Z,22.50
2022-11-22T16:30:44.106Z,23.27
2022-11-22T16:32:48.026Z,22.23
2022-11-22T16:35:03.040Z,21.43
2022-11-22T16:37:36.141Z,19.00
2022-11-22T16:39:40.286Z,21.13
2022-11-22T16:41:42.349Z,22.00
2022-11-22T16:43:44.498Z,21.33
2022-11-22T16:45:46.722Z,22.93
2022-11-22T16:48:03.644Z,22.60
2022-11-22T16:50:13.433Z,22.40
2022-11-22T16:52:17.218Z,23.23
2022-11-22T16:54:20.351Z,21.27
2022-11-22T16:56:25.028Z,20.40
2022-11-22T16:58:28.741Z,21.60
2022-11-22T17:00:30.977Z,22.03
2022-11-22T17:02:33.025Z,23.23
2022-11-22T17:04:40.703Z,22.90
2022-11-22T17:06:43.978Z,22.87
2022-11-22T17:08:49.852Z,23.80
2022-11-22T17:10:52.673Z,25.90
2022-11-22T17:12:54.659Z,25.73
2022-11-22T17:14:56.820Z,24.60
2022-11-22T17:16:58.814Z,24.10
2022-11-22T17:19:00.818Z,24.20
2022-11-22T17:21:04.789Z,25.47
2022-11-22T17:23:11.983Z,23.53
2022-11-22T17:25:13.934Z,23.40
2022-11-22T17:27:15.910Z,22.87
2022-11-22T17:29:48.848Z,24.27
2022-11-22T17:31:40.031Z,21.87
2022-11-22T17:33:42.245Z,25.30
2022-11-22T17:35:44.323Z,23.93
2022-11-22T17:37:46.315Z,28.70
2022-11-22T17:39:51.483Z,25.37
2022-11-22T17:41:53.423Z,27.77
2022-11-22T17:43:55.758Z,25.80
2022-11-22T17:45:59.881Z,27.43
2022-11-22T17:48:01.880Z,30.00
2022-11-22T17:50:04.305Z,28.87
2022-11-22T17:52:06.353Z,28.77
2022-11-22T17:54:08.902Z,27.63
2022-11-22T17:56:11.720Z,26.40
2022-11-22T17:58:14.070Z,26.00
2022-11-22T18:00:16.474Z,25.77
2022-11-22T18:02:18.514Z,27.80
2022-11-22T18:04:20.487Z,25.83
2022-11-22T18:06:22.642Z,26.87
2022-11-22T18:08:24.799Z,25.20
2022-11-22T18:10:26.923Z,24.77
2022-11-22T18:12:29.051Z,22.40
2022-11-22T18:14:31.411Z,27.30
2022-11-22T18:16:33.438Z,26.40
2022-11-22T18:20:59.597Z,27.60
2022-11-22T18:23:01.678Z,29.27
2022-11-22T18:25:05.245Z,28.47
2022-11-22T18:27:07.414Z,28.30
2022-11-22T18:31:50.723Z,29.13
2022-11-22T18:33:54.431Z,27.60
2022-11-22T18:36:36.767Z,28.57
2022-11-22T18:38:29.440Z,25.90
2022-11-22T18:40:31.767Z,25.67
2022-11-22T18:42:35.328Z,22.30
2022-11-22T18:44:37.282Z,23.60
2022-11-22T18:46:40.028Z,24.30
2022-11-22T18:48:42.009Z,23.63
2022-11-22T18:50:44.723Z,23.30
2022-11-22T18:52:46.791Z,22.30
2022-11-22T18:54:49.186Z,25.73
2022-11-22T18:56:51.740Z,25.40
2022-11-22T18:58:53.794Z,27.03
2022-11-22T19:00:55.859Z,24.10
2022-11-22T19:02:59.519Z,24.77
2022-11-22T19:05:02.056Z,26.97
2022-11-22T19:07:04.154Z,25.97
2022-11-22T19:09:06.979Z,28.53
2022-11-22T19:11:09.491Z,27.53
2022-11-22T19:13:11.426Z,27.30
2022-11-22T19:15:13.418Z,24.40
2022-11-22T19:17:18.667Z,23.93
2022-11-22T19:19:24.813Z,24.50
2022-11-22T19:21:28.442Z,27.07
2022-11-22T19:23:31.852Z,27.27
2022-11-22T19:25:37.157Z,29.03
2022-11-22T19:27:39.373Z,28.77
2022-11-22T19:29:41.651Z,30.60
2022-11-22T19:31:44.205Z,28.77
2022-11-22T19:33:46.465Z,24.70
2022-11-22T19:35:58.830Z,27.73
2022-11-22T19:38:01.052Z,24.57
2022-11-22T19:40:03.679Z,26.80
2022-11-22T19:42:07.005Z,25.30
2022-11-22T19:44:09.399Z,26.10
2022-11-22T19:46:12.417Z,23.20
2022-11-22T19:48:16.119Z,22.50
2022-11-22T19:50:18.574Z,24.50
2022-11-22T19:52:20.743Z,23.80
2022-11-22T19:54:22.901Z,24.10
2022-11-22T19:56:30.600Z,22.53
2022-11-22T19:58:33.207Z,22.97
2022-11-22T20:00:35.322Z,22.10
2022-11-22T20:02:37.465Z,22.40
2022-11-22T20:04:39.778Z,23.37
2022-11-22T20:06:43.969Z,23.90
2022-11-22T20:08:49.770Z,23.20
2022-11-22T20:10:51.985Z,23.50
2022-11-22T20:12:54.111Z,21.67
2022-11-22T20:14:56.311Z,22.70
2022-11-22T20:16:58.526Z,22.50
2022-11-22T20:19:02.605Z,21.53
2022-11-22T20:21:06.702Z,24.07
2022-11-22T20:23:08.896Z,23.83
2022-11-22T20:25:11.035Z,22.57
2022-11-22T20:27:14.004Z,22.10
2022-11-22T20:29:17.687Z,22.00
2022-11-22T20:31:20.141Z,21.27
2022-11-22T20:33:22.297Z,20.83
2022-11-22T20:35:24.396Z,21.43
2022-11-22T20:37:26.489Z,22.90
2022-11-22T20:39:28.867Z,22.20
2022-11-22T20:41:31.016Z,22.10
2022-11-22T20:43:34.209Z,21.50
2022-11-22T20:45:36.771Z,21.50
2022-11-22T20:47:39.098Z,22.33
2022-11-22T20:49:45.493Z,21.27
2022-11-22T20:51:47.915Z,18.70
2022-11-22T20:53:50.584Z,21.17
2022-11-22T20:55:52.832Z,22.20
2022-11-22T20:57:54.958Z,20.77
2022-11-22T20:59:57.037Z,20.60
2022-11-22T21:01:59.162Z,21.53
2022-11-22T21:04:01.388Z,20.00
2022-11-22T21:06:04.756Z,20.73
2022-11-22T21:08:06.979Z,22.13
2022-11-22T21:10:10.596Z,22.30
2022-11-22T21:12:15.232Z,22.53
2022-11-22T21:14:17.294Z,22.30
2022-11-22T21:16:23.781Z,21.93
2022-11-22T21:18:30.287Z,20.20
2022-11-22T21:20:33.182Z,20.13
2022-11-22T21:22:35.373Z,19.70
2022-11-22T21:24:37.473Z,21.33
2022-11-22T21:26:39.797Z,20.87
2022-11-22T21:28:41.929Z,21.20
2022-11-22T21:30:44.008Z,20.77
2022-11-22T21:32:46.158Z,21.70
2022-11-22T21:34:48.323Z,21.63
2022-11-22T21:36:50.511Z,21.30
2022-11-22T21:38:52.773Z,20.60
2022-11-22T21:41:10.896Z,23.13
2022-11-22T21:43:19.111Z,22.07
2022-11-22T21:45:21.248Z,20.80
2022-11-22T21:47:23.903Z,22.37
2022-11-22T21:49:26.035Z,22.50
2022-11-22T21:51:28.245Z,23.07
2022-11-22T21:53:30.617Z,24.40
2022-11-22T21:55:32.938Z,25.13
2022-11-22T21:57:35.216Z,27.60
2022-11-22T21:59:37.332Z,25.37
2022-11-22T22:01:39.556Z,25.20
2022-11-22T22:03:41.809Z,23.87
2022-11-22T22:05:52.978Z,24.00
2022-11-22T22:07:55.170Z,21.60
2022-11-22T22:09:57.342Z,22.50
2022-11-22T22:11:59.471Z,19.90
2022-11-22T22:14:01.636Z,21.23
2022-11-22T22:16:06.840Z,20.07
2022-11-22T22:18:09.130Z,20.93
2022-11-22T22:20:11.528Z,23.20
2022-11-22T22:22:13.700Z,19.83
2022-11-22T22:24:15.921Z,19.40
2022-11-22T22:26:18.209Z,21.77
2022-11-22T22:28:20.379Z,21.67
2022-11-22T22:30:23.143Z,19.47
2022-11-22T22:32:26.266Z,19.57
2022-11-22T22:34:28.608Z,18.90
2022-11-22T22:36:30.801Z,19.67
2022-11-22T22:38:33.639Z,20.23
2022-11-22T22:40:35.770Z,20.13
2022-11-22T22:42:37.929Z,18.47
2022-11-22T22:44:40.060Z,18.60
2022-11-22T22:46:42.184Z,18.63
2022-11-22T22:48:44.781Z,19.47
2022-11-22T22:50:46.951Z,20.17
2022-11-22T22:52:49.111Z,20.50
2022-11-22T22:54:51.242Z,21.83
2022-11-22T22:56:53.386Z,18.90
2022-11-22T22:58:56.223Z,20.80
2022-11-22T23:01:19.173Z,18.90
2022-11-22T23:03:21.381Z,18.77
2022-11-22T23:05:23.768Z,19.60
2022-11-22T23:07:25.925Z,17.10
2022-11-22T23:09:28.061Z,18.40
2022-11-22T23:11:49.718Z,18.17
2022-11-22T23:13:51.838Z,18.13
2022-11-22T23:15:58.343Z,21.57
2022-11-22T23:18:00.863Z,20.07
2022-11-22T23:20:03.211Z,22.40
2022-11-22T23:22:05.885Z,20.87
2022-11-22T23:24:08.494Z,23.43
2022-11-22T23:26:12.441Z,22.00
2022-11-22T23:28:14.688Z,23.33
2022-11-22T23:30:16.928Z,22.57
2022-11-22T23:32:19.067Z,20.60
2022-11-22T23:34:21.495Z,18.27
2022-11-22T23:36:23.677Z,17.70
2022-11-22T23:38:25.807Z,18.47
2022-11-22T23:40:27.992Z,18.83
2022-11-22T23:42:30.094Z,17.13
2022-11-22T23:44:32.209Z,16.60
2022-11-22T23:46:34.413Z,17.70
2022-11-22T23:48:36.496Z,17.03
2022-11-22T23:50:38.609Z,16.93
2022-11-22T23:52:40.683Z,16.63
2022-11-22T23:54:42.808Z,15.37
2022-11-22T23:56:44.939Z,16.40
2022-11-22T23:58:47.124Z,17.27
